Time;durP1;ratioP1;P1;durP2;ratioP2;P2;SDS_P1;SDS_P2;PMS_P1;PMS_P2;Temp;Humidity;BMP_temperature;BMP_pressure;BME280_temperature;BME280_humidity;BME280_pressure;Samples;Min_cycle;Max_cycle;Signal;HPM_P1;HPM_P2
2022/08/19 00:01:57;;;;;;;7.87;7.27;;;;;;;;;;5034590;28;20206;-76
2022/08/19 00:04:27;;;;;;;9.63;8.00;;;;;;;;;;5035621;28;20225;-76
2022/08/19 00:06:54;;;;;;;8.17;7.37;;;;;;;;;;5035682;28;20669;-76
2022/08/19 00:09:23;;;;;;;8.37;7.67;;;;;;;;;;5034187;28;20252;-76
2022/08/19 00:11:55;;;;;;;8.37;7.53;;;;;;;;;;5033882;28;20586;-76
2022/08/19 00:14:23;;;;;;;9.03;7.73;;;;;;;;;;5035999;28;20198;-76
2022/08/19 00:16:51;;;;;;;7.97;7.10;;;;;;;;;;5033775;28;20217;-76
2022/08/19 00:19:18;;;;;;;8.23;7.23;;;;;;;;;;5035070;28;20226;-77
2022/08/19 00:21:46;;;;;;;7.20;6.50;;;;;;;;;;5035089;28;20202;-77
2022/08/19 00:24:14;;;;;;;9.03;8.10;;;;;;;;;;5034997;28;20703;-76
2022/08/19 00:26:42;;;;;;;8.07;7.20;;;;;;;;;;5035197;28;20601;-76
2022/08/19 00:29:12;;;;;;;7.63;7.00;;;;;;;;;;5034912;28;20602;-77
2022/08/19 00:31:39;;;;;;;8.30;7.50;;;;;;;;;;5034872;28;20712;-76
2022/08/19 00:34:06;;;;;;;8.83;8.03;;;;;;;;;;5033380;28;20630;-76
2022/08/19 00:36:33;;;;;;;8.47;7.40;;;;;;;;;;5034662;28;20677;-76
2022/08/19 00:39:01;;;;;;;8.30;7.60;;;;;;;;;;5034702;28;20348;-76
2022/08/19 00:41:28;;;;;;;12.83;7.83;;;;;;;;;;5034648;28;20237;-76
2022/08/19 00:44:01;;;;;;;8.77;7.63;;;;;;;;;;5017033;28;20681;-77
2022/08/19 00:46:31;;;;;;;8.10;7.30;;;;;;;;;;5034642;28;20202;-76
2022/08/19 00:48:58;;;;;;;7.47;6.87;;;;;;;;;;5034792;28;20202;-76
2022/08/19 00:51:26;;;;;;;8.33;7.50;;;;;;;;;;5034534;28;20234;-76
2022/08/19 00:53:54;;;;;;;9.07;8.23;;;;;;;;;;5034482;28;20210;-76
2022/08/19 00:56:20;;;;;;;8.13;7.50;;;;;;;;;;5031527;28;20260;-77
2022/08/19 00:58:47;;;;;;;8.07;7.37;;;;;;;;;;5032842;28;20222;-77
2022/08/19 01:01:15;;;;;;;10.37;7.77;;;;;;;;;;5016922;28;20199;-76
2022/08/19 01:03:43;;;;;;;9.33;8.53;;;;;;;;;;5034705;28;20256;-77
2022/08/19 01:06:10;;;;;;;8.23;7.63;;;;;;;;;;5034269;28;20336;-77
2022/08/19 01:08:37;;;;;;;8.87;8.07;;;;;;;;;;5034423;28;20236;-77
2022/08/19 01:11:05;;;;;;;8.43;7.70;;;;;;;;;;5033331;28;20198;-77
2022/08/19 01:13:34;;;;;;;10.60;8.03;;;;;;;;;;5035360;28;20226;-76
2022/08/19 01:16:04;;;;;;;8.87;7.97;;;;;;;;;;5032554;28;20202;-77
2022/08/19 01:18:32;;;;;;;8.40;7.70;;;;;;;;;;5034000;28;20227;-76
2022/08/19 01:21:07;;;;;;;8.80;7.77;;;;;;;;;;5034207;28;20198;-77
2022/08/19 01:23:44;;;;;;;10.30;9.33;;;;;;;;;;5033967;28;20237;-76
2022/08/19 01:26:14;;;;;;;9.90;7.90;;;;;;;;;;5034201;28;20635;-77
2022/08/19 01:28:42;;;;;;;8.83;8.03;;;;;;;;;;5034794;28;20199;-76
2022/08/19 01:31:12;;;;;;;8.80;8.10;;;;;;;;;;5033761;28;20202;-76
2022/08/19 01:33:39;;;;;;;9.17;8.00;;;;;;;;;;5032596;28;20289;-76
2022/08/19 01:36:08;;;;;;;8.90;8.00;;;;;;;;;;5033559;28;20202;-76
2022/08/19 01:38:39;;;;;;;9.03;8.30;;;;;;;;;;5034093;28;20219;-77
2022/08/19 01:41:06;;;;;;;9.63;8.47;;;;;;;;;;5034789;28;20392;-76
2022/08/19 01:43:33;;;;;;;9.27;8.37;;;;;;;;;;5032290;28;20202;-76
2022/08/19 01:46:00;;;;;;;9.43;8.63;;;;;;;;;;5032434;28;20272;-76
2022/08/19 01:48:30;;;;;;;9.10;8.20;;;;;;;;;;5049034;28;20210;-76
2022/08/19 01:50:57;;;;;;;9.33;8.47;;;;;;;;;;5033924;28;20206;-76
2022/08/19 01:53:24;;;;;;;9.20;8.30;;;;;;;;;;5049230;28;20205;-76
2022/08/19 01:55:52;;;;;;;9.03;7.93;;;;;;;;;;5032130;28;20680;-76
2022/08/19 01:58:22;;;;;;;8.37;7.67;;;;;;;;;;5033165;28;20689;-77
2022/08/19 02:00:50;;;;;;;8.43;7.73;;;;;;;;;;5048886;28;20272;-76
2022/08/19 02:03:17;;;;;;;9.30;8.40;;;;;;;;;;5031910;28;20206;-76
2022/08/19 02:05:45;;;;;;;9.70;8.70;;;;;;;;;;5033092;28;20206;-76
2022/08/19 02:08:13;;;;;;;8.60;7.90;;;;;;;;;;5033124;28;20301;-76
2022/08/19 02:10:41;;;;;;;9.20;8.30;;;;;;;;;;5032988;28;20199;-76
2022/08/19 02:13:10;;;;;;;9.03;8.27;;;;;;;;;;5033233;28;20199;-76
2022/08/19 02:15:37;;;;;;;8.77;7.87;;;;;;;;;;5032988;28;20232;-76
2022/08/19 02:18:05;;;;;;;9.73;8.93;;;;;;;;;;5032848;28;20280;-76
2022/08/19 02:23:53;;;;;;;9.17;8.23;;;;;;;;;;5032808;28;20205;-77
2022/08/19 02:26:20;;;;;;;9.57;8.60;;;;;;;;;;5032598;28;20226;-77
2022/08/19 02:28:49;;;;;;;9.57;8.67;;;;;;;;;;5033079;28;20573;-76
2022/08/19 02:31:18;;;;;;;10.37;9.33;;;;;;;;;;5029931;28;20215;-77
2022/08/19 02:33:46;;;;;;;9.63;8.83;;;;;;;;;;5032630;28;20194;-76
2022/08/19 02:36:14;;;;;;;9.93;9.00;;;;;;;;;;5031278;28;20736;-76
2022/08/19 02:38:40;;;;;;;9.43;8.60;;;;;;;;;;5033535;28;20221;-76
2022/08/19 02:41:10;;;;;;;9.63;8.80;;;;;;;;;;5032543;28;20213;-76
2022/08/19 02:43:38;;;;;;;11.20;9.20;;;;;;;;;;5032166;28;20209;-76
2022/08/19 02:46:14;;;;;;;9.03;8.23;;;;;;;;;;5032084;28;20206;-76
2022/08/19 02:48:41;;;;;;;9.50;8.63;;;;;;;;;;5032362;28;20202;-76
2022/08/19 02:51:09;;;;;;;10.17;9.17;;;;;;;;;;5014904;28;20207;-76
2022/08/19 02:53:36;;;;;;;9.80;9.00;;;;;;;;;;5032600;28;20194;-75
2022/08/19 02:56:07;;;;;;;9.00;8.20;;;;;;;;;;5032249;28;20205;-76
2022/08/19 02:58:34;;;;;;;13.50;9.07;;;;;;;;;;5032111;28;20222;-76
2022/08/19 03:01:02;;;;;;;10.23;9.27;;;;;;;;;;5031105;28;20206;-76
2022/08/19 03:03:31;;;;;;;10.37;9.33;;;;;;;;;;5029556;28;20673;-76
2022/08/19 03:06:06;;;;;;;10.80;8.13;;;;;;;;;;5031560;28;20209;-76
2022/08/19 03:08:34;;;;;;;11.30;10.30;;;;;;;;;;5030860;28;20202;-77
2022/08/19 03:11:01;;;;;;;10.67;9.77;;;;;;;;;;5032205;28;20604;-78
2022/08/19 03:13:28;;;;;;;9.53;8.63;;;;;;;;;;5030565;28;20207;-78
2022/08/19 03:15:57;;;;;;;10.33;9.50;;;;;;;;;;5029200;28;20199;-78
2022/08/19 03:18:24;;;;;;;8.77;8.07;;;;;;;;;;5031172;28;20553;-79
2022/08/19 03:20:54;;;;;;;11.07;8.83;;;;;;;;;;5030029;28;20205;-79
2022/08/19 03:23:21;;;;;;;9.00;8.20;;;;;;;;;;5030837;28;20209;-78
2022/08/19 03:25:50;;;;;;;8.30;7.60;;;;;;;;;;5031843;28;20269;-78
2022/08/19 03:28:17;;;;;;;9.07;8.37;;;;;;;;;;5031701;28;20681;-79
2022/08/19 03:30:55;;;;;;;9.40;8.50;;;;;;;;;;5031759;28;20608;-78
2022/08/19 03:33:23;;;;;;;9.90;9.00;;;;;;;;;;5030618;28;20252;-78
2022/08/19 03:36:03;;;;;;;10.37;9.40;;;;;;;;;;5028889;28;20203;-79
2022/08/19 03:38:30;;;;;;;9.67;8.70;;;;;;;;;;5031766;28;20696;-79
2022/08/19 03:40:57;;;;;;;10.63;9.63;;;;;;;;;;5032238;28;20199;-79
2022/08/19 03:43:24;;;;;;;11.20;8.90;;;;;;;;;;5048510;28;20205;-78
2022/08/19 03:46:00;;;;;;;10.03;9.17;;;;;;;;;;5051748;28;20545;-78
2022/08/19 03:48:29;;;;;;;9.43;8.53;;;;;;;;;;5067067;28;20197;-78
2022/08/19 03:50:58;;;;;;;10.90;9.67;;;;;;;;;;5049971;28;20237;-78
2022/08/19 03:53:27;;;;;;;10.40;9.33;;;;;;;;;;5032813;28;20202;-79
2022/08/19 03:55:55;;;;;;;10.03;8.90;;;;;;;;;;5030300;28;20669;-78
2022/08/19 03:58:22;;;;;;;11.00;9.90;;;;;;;;;;5031305;28;20199;-79
2022/08/19 04:00:49;;;;;;;10.40;9.27;;;;;;;;;;5046636;28;20195;-78
2022/08/19 04:03:18;;;;;;;12.23;9.60;;;;;;;;;;5031103;28;20225;-79
2022/08/19 04:05:46;;;;;;;10.63;9.63;;;;;;;;;;5030661;28;20290;-75
2022/08/19 04:08:15;;;;;;;10.40;9.47;;;;;;;;;;5030362;28;20248;-78
2022/08/19 04:10:43;;;;;;;10.00;9.20;;;;;;;;;;5012211;28;20205;-79
2022/08/19 04:13:10;;;;;;;10.17;9.27;;;;;;;;;;5030412;28;20598;-78
2022/08/19 04:15:41;;;;;;;10.30;9.13;;;;;;;;;;5030078;28;20195;-78
2022/08/19 04:18:09;;;;;;;9.53;8.73;;;;;;;;;;5030090;28;20578;-78
2022/08/19 04:20:41;;;;;;;11.23;10.07;;;;;;;;;;5045494;28;20234;-78
2022/08/19 04:23:08;;;;;;;10.77;8.47;;;;;;;;;;5028686;28;20290;-77
2022/08/19 04:25:40;;;;;;;10.80;9.70;;;;;;;;;;5029124;28;20222;-79
2022/08/19 04:28:12;;;;;;;10.37;9.47;;;;;;;;;;5030809;28;20202;-79
2022/08/19 04:30:41;;;;;;;10.23;9.37;;;;;;;;;;5009324;28;20204;-78
2022/08/19 04:33:08;;;;;;;10.90;10.00;;;;;;;;;;5026316;28;20252;-79
2022/08/19 04:35:40;;;;;;;10.27;9.37;;;;;;;;;;5030428;28;20187;-78
2022/08/19 04:38:08;;;;;;;11.03;10.03;;;;;;;;;;5026055;28;20580;-78
2022/08/19 04:43:20;;;;;;;11.10;10.10;;;;;;;;;;5041431;28;20256;-78
2022/08/19 04:45:47;;;;;;;10.70;9.70;;;;;;;;;;5031162;28;20199;-78
2022/08/19 04:48:15;;;;;;;12.83;10.80;;;;;;;;;;5032737;28;20256;-79
2022/08/19 04:50:43;;;;;;;10.80;9.90;;;;;;;;;;5025550;28;20198;-78
2022/08/19 04:53:11;;;;;;;12.33;11.23;;;;;;;;;;5035578;28;21680;-79
2022/08/19 04:55:42;;;;;;;12.70;11.50;;;;;;;;;;5033399;28;20248;-79
2022/08/19 04:58:09;;;;;;;11.60;10.07;;;;;;;;;;5032495;28;20256;-80
2022/08/19 05:00:39;;;;;;;11.23;10.20;;;;;;;;;;5032695;28;20222;-79
2022/08/19 05:03:06;;;;;;;10.97;9.30;;;;;;;;;;5017231;28;20249;-78
2022/08/19 05:05:34;;;;;;;19.73;9.60;;;;;;;;;;5032488;28;20635;-91
2022/08/19 05:08:03;;;;;;;13.07;10.90;;;;;;;;;;5032946;28;20584;-91
2022/08/19 05:14:08;;;;;;;10.10;9.10;;;;;;;;;;5039307;28;20612;-91
2022/08/19 05:16:37;;;;;;;9.13;8.03;;;;;;;;;;5032820;28;20218;-91
2022/08/19 05:24:33;;;;;;;36.47;30.23;;;;;;;;;;5031999;28;20249;-85
2022/08/19 05:27:02;;;;;;;26.30;23.30;;;;;;;;;;5044408;28;20218;-85
2022/08/19 05:29:31;;;;;;;17.70;16.00;;;;;;;;;;5016278;28;20199;-85
2022/08/19 05:32:00;;;;;;;11.93;10.73;;;;;;;;;;5031265;28;20285;-85
2022/08/19 05:34:28;;;;;;;9.57;8.53;;;;;;;;;;5032943;28;20198;-85
2022/08/19 05:36:57;;;;;;;8.97;8.10;;;;;;;;;;5031743;28;20199;-85
2022/08/19 05:39:26;;;;;;;9.53;7.93;;;;;;;;;;5033589;28;20265;-86
2022/08/19 05:41:56;;;;;;;8.50;7.73;;;;;;;;;;5033599;28;20615;-84
2022/08/19 05:44:24;;;;;;;8.73;8.00;;;;;;;;;;5032302;28;20203;-87
2022/08/19 05:46:53;;;;;;;7.80;7.10;;;;;;;;;;5030451;28;20210;-83
2022/08/19 05:49:23;;;;;;;8.63;7.93;;;;;;;;;;5031161;28;20202;-82
2022/08/19 05:51:50;;;;;;;8.53;7.83;;;;;;;;;;5031998;28;20202;-81
2022/08/19 05:54:18;;;;;;;9.57;7.80;;;;;;;;;;5015570;28;20202;-81
2022/08/19 05:56:47;;;;;;;9.67;8.73;;;;;;;;;;5033365;28;20206;-82
2022/08/19 05:59:15;;;;;;;13.40;9.40;;;;;;;;;;5032472;28;20206;-86
2022/08/19 06:01:44;;;;;;;9.70;8.70;;;;;;;;;;5032750;28;20225;-85
2022/08/19 06:07:35;;;;;;;10.20;9.10;;;;;;;;;;5033556;28;20664;-78
2022/08/19 06:10:02;;;;;;;10.73;9.20;;;;;;;;;;5031455;28;20198;-78
2022/08/19 06:12:31;;;;;;;11.53;8.97;;;;;;;;;;5032193;28;20210;-86
2022/08/19 06:14:58;;;;;;;10.20;8.47;;;;;;;;;;5032151;28;20558;-81
2022/08/19 06:17:25;;;;;;;9.17;8.33;;;;;;;;;;5032219;28;20285;-81
2022/08/19 06:19:53;;;;;;;9.50;8.60;;;;;;;;;;5030636;28;20702;-81
2022/08/19 06:22:20;;;;;;;9.43;8.50;;;;;;;;;;5031612;28;20198;-90
2022/08/19 06:24:52;;;;;;;10.33;7.83;;;;;;;;;;5031687;28;20218;-89
2022/08/19 06:27:19;;;;;;;8.27;7.57;;;;;;;;;;5031740;28;20288;-80
2022/08/19 06:29:47;;;;;;;9.00;8.10;;;;;;;;;;5031959;28;20257;-81
2022/08/19 06:32:16;;;;;;;11.95;7.85;;;;;;;;;;5032205;28;20245;-82
2022/08/19 06:34:43;;;;;;;8.23;7.53;;;;;;;;;;5031392;28;20248;-83
2022/08/19 06:37:10;;;;;;;7.90;7.07;;;;;;;;;;5030293;28;20230;-81
2022/08/19 06:39:40;;;;;;;9.60;8.30;;;;;;;;;;5028732;28;20733;-83
2022/08/19 06:42:11;;;;;;;8.20;7.50;;;;;;;;;;5046991;28;20259;-85
2022/08/19 06:44:40;;;;;;;8.82;7.10;;;;;;;;;;5043676;28;20293;-78
2022/08/19 06:47:33;;;;;;;8.52;7.63;;;;;;;;;;5048374;28;20202;-78
2022/08/19 06:50:02;;;;;;;8.73;6.78;;;;;;;;;;5021114;28;20600;-78
2022/08/19 06:52:30;;;;;;;8.15;7.13;;;;;;;;;;5032351;28;20207;-78
2022/08/19 06:54:57;;;;;;;6.68;6.18;;;;;;;;;;5045787;28;20195;-79
2022/08/19 07:00:48;;;;;;;9.77;7.50;;;;;;;;;;5032567;28;20193;-81
2022/08/19 07:03:15;;;;;;;7.38;6.70;;;;;;;;;;5032562;28;20202;-87
2022/08/19 07:09:05;;;;;;;7.10;6.50;;;;;;;;;;5032265;28;20591;-90
2022/08/19 07:11:32;;;;;;;6.82;6.30;;;;;;;;;;5029555;28;20191;-91
2022/08/19 07:13:59;;;;;;;6.90;6.40;;;;;;;;;;5031159;28;20293;-84
2022/08/19 07:19:50;;;;;;;7.03;5.85;;;;;;;;;;5032041;28;20651;-81
2022/08/19 07:22:17;;;;;;;6.10;5.63;;;;;;;;;;5030441;28;20285;-81
2022/08/19 07:24:45;;;;;;;6.03;5.43;;;;;;;;;;5032079;28;20206;-92
2022/08/19 07:27:12;;;;;;;6.15;5.50;;;;;;;;;;5030779;28;20230;-83
2022/08/19 07:29:41;;;;;;;8.13;5.55;;;;;;;;;;5032137;28;20195;-88
2022/08/19 07:32:09;;;;;;;9.35;6.30;;;;;;;;;;5030638;28;20714;-82
2022/08/19 07:34:37;;;;;;;5.97;5.45;;;;;;;;;;5028575;28;20206;-83
2022/08/19 07:37:06;;;;;;;17.00;5.78;;;;;;;;;;5029808;28;20237;-88
2022/08/19 07:39:36;;;;;;;6.05;5.60;;;;;;;;;;5030424;28;20198;-86
2022/08/19 07:42:07;;;;;;;5.93;5.53;;;;;;;;;;5030395;28;20195;-81
2022/08/19 07:44:35;;;;;;;6.28;5.78;;;;;;;;;;5034191;28;20231;-80
2022/08/19 07:47:02;;;;;;;6.03;5.53;;;;;;;;;;5039651;28;20557;-86
2022/08/19 07:49:29;;;;;;;6.47;5.65;;;;;;;;;;5032697;28;20210;-86
2022/08/19 07:52:08;;;;;;;6.38;5.88;;;;;;;;;;5030015;28;20191;-78
2022/08/19 07:54:37;;;;;;;5.95;5.45;;;;;;;;;;5023421;28;20272;-82
2022/08/19 07:57:05;;;;;;;6.45;5.95;;;;;;;;;;5031397;28;20198;-86
2022/08/19 07:59:32;;;;;;;8.27;6.00;;;;;;;;;;5030610;28;20246;-80
2022/08/19 08:02:00;;;;;;;5.13;4.72;;;;;;;;;;5031458;28;20709;-80
2022/08/19 08:13:55;;;;;;;6.20;5.70;;;;;;;;;;5031710;28;20273;-82
2022/08/19 08:16:25;;;;;;;6.70;5.75;;;;;;;;;;5031471;28;20198;-79
2022/08/19 08:18:52;;;;;;;5.88;5.40;;;;;;;;;;5031381;28;20268;-80
2022/08/19 08:21:19;;;;;;;6.50;5.97;;;;;;;;;;5032502;28;20233;-80
2022/08/19 08:23:48;;;;;;;5.65;5.13;;;;;;;;;;5035258;28;20198;-81
2022/08/19 08:26:16;;;;;;;5.82;5.22;;;;;;;;;;5031407;28;20639;-81
2022/08/19 08:28:43;;;;;;;6.18;5.65;;;;;;;;;;5016593;28;20210;-79
2022/08/19 08:31:11;;;;;;;6.65;6.00;;;;;;;;;;5035017;28;20195;-79
2022/08/19 08:36:59;;;;;;;8.63;6.40;;;;;;;;;;5035310;28;20688;-80
2022/08/19 08:39:28;;;;;;;6.25;5.82;;;;;;;;;;5034761;28;20207;-81
2022/08/19 08:42:00;;;;;;;6.10;5.70;;;;;;;;;;5033285;28;20222;-80
2022/08/19 08:44:34;;;;;;;8.00;6.80;;;;;;;;;;5034742;28;20203;-78
2022/08/19 08:47:04;;;;;;;7.20;6.15;;;;;;;;;;5034767;28;20629;-79
2022/08/19 08:49:35;;;;;;;6.05;5.57;;;;;;;;;;5031255;28;20206;-81
2022/08/19 08:52:06;;;;;;;8.07;6.30;;;;;;;;;;5033228;28;20198;-82
2022/08/19 08:54:40;;;;;;;6.97;6.28;;;;;;;;;;5048648;28;20198;-87
2022/08/19 08:57:11;;;;;;;6.65;6.18;;;;;;;;;;5033924;28;20210;-84
2022/08/19 08:59:41;;;;;;;6.05;5.55;;;;;;;;;;5014657;28;20219;-83
2022/08/19 09:05:37;;;;;;;6.25;5.63;;;;;;;;;;5020568;28;20240;-79
2022/08/19 09:08:09;;;;;;;6.25;5.70;;;;;;;;;;5032969;28;20209;-80
2022/08/19 09:10:40;;;;;;;6.00;5.50;;;;;;;;;;5033821;28;20293;-78
2022/08/19 09:13:13;;;;;;;6.85;6.25;;;;;;;;;;5013575;28;20266;-81
2022/08/19 09:15:44;;;;;;;6.03;5.43;;;;;;;;;;5019855;28;20202;-80
2022/08/19 09:18:11;;;;;;;6.70;6.10;;;;;;;;;;5032622;28;20203;-82
2022/08/19 09:20:40;;;;;;;7.30;6.70;;;;;;;;;;5035980;28;20222;-81
2022/08/19 09:23:07;;;;;;;6.65;5.80;;;;;;;;;;5033798;28;20203;-84
2022/08/19 09:25:35;;;;;;;6.65;6.13;;;;;;;;;;5032294;28;20306;-82
2022/08/19 09:28:05;;;;;;;5.93;5.50;;;;;;;;;;5037950;28;20255;-82
2022/08/19 09:30:36;;;;;;;6.65;6.05;;;;;;;;;;5038041;28;20695;-82
2022/08/19 09:33:04;;;;;;;6.18;5.57;;;;;;;;;;5031377;28;20195;-82
2022/08/19 09:35:32;;;;;;;6.85;6.28;;;;;;;;;;5033556;28;20264;-82
2022/08/19 09:38:00;;;;;;;6.10;5.60;;;;;;;;;;5033773;28;20688;-82
2022/08/19 09:40:28;;;;;;;6.47;5.88;;;;;;;;;;5033502;28;20234;-81
2022/08/19 09:42:56;;;;;;;6.50;5.95;;;;;;;;;;5016309;28;20564;-81
2022/08/19 09:45:25;;;;;;;6.47;5.97;;;;;;;;;;5030939;28;20198;-84
2022/08/19 09:47:54;;;;;;;5.90;5.40;;;;;;;;;;5032373;28;20264;-84
2022/08/19 09:50:21;;;;;;;5.88;5.30;;;;;;;;;;5029482;28;20205;-85
2022/08/19 09:52:49;;;;;;;7.70;5.30;;;;;;;;;;5035918;28;20190;-83
2022/08/19 09:55:17;;;;;;;7.03;5.97;;;;;;;;;;5045456;28;20206;-81
2022/08/19 09:57:44;;;;;;;6.72;6.07;;;;;;;;;;5044363;28;20219;-79
2022/08/19 10:00:12;;;;;;;6.80;6.00;;;;;;;;;;5031687;28;20199;-82
2022/08/19 10:06:08;;;;;;;5.75;5.28;;;;;;;;;;5033875;28;20178;-80
2022/08/19 10:08:39;;;;;;;6.57;5.97;;;;;;;;;;5047223;28;20194;-80
2022/08/19 10:11:08;;;;;;;7.97;6.65;;;;;;;;;;5031602;28;20252;-83
2022/08/19 10:13:36;;;;;;;6.55;5.85;;;;;;;;;;5030107;28;20202;-81
2022/08/19 10:16:06;;;;;;;5.97;5.47;;;;;;;;;;5014588;28;20285;-80
2022/08/19 10:18:34;;;;;;;5.93;5.35;;;;;;;;;;5032961;28;20676;-80
2022/08/19 10:21:11;;;;;;;8.27;5.88;;;;;;;;;;5032890;28;20230;-77
2022/08/19 10:23:38;;;;;;;6.80;6.25;;;;;;;;;;5032968;28;20198;-78
2022/08/19 10:26:06;;;;;;;6.07;5.47;;;;;;;;;;5031671;28;20222;-82
2022/08/19 10:28:39;;;;;;;6.03;5.63;;;;;;;;;;5031646;28;20268;-81
2022/08/19 10:31:08;;;;;;;6.30;5.43;;;;;;;;;;5031716;28;20685;-80
2022/08/19 10:33:35;;;;;;;5.38;4.97;;;;;;;;;;5032358;28;20191;-81
2022/08/19 10:42:55;;;;;;;7.20;5.35;;;;;;;;;;5032762;28;20261;-82
2022/08/19 10:45:25;;;;;;;5.65;5.15;;;;;;;;;;5031792;28;20213;-81
2022/08/19 10:47:53;;;;;;;6.07;5.53;;;;;;;;;;5015703;28;20645;-80
2022/08/19 10:53:42;;;;;;;6.47;5.85;;;;;;;;;;5032748;28;20212;-78
2022/08/19 10:59:13;;;;;;;5.00;4.57;;;;;;;;;;4996342;28;20218;-82
2022/08/19 11:01:41;;;;;;;5.50;5.00;;;;;;;;;;4998148;28;20305;-80
2022/08/19 11:04:10;;;;;;;5.35;4.95;;;;;;;;;;5020377;28;20202;-79
2022/08/19 11:06:38;;;;;;;5.88;5.47;;;;;;;;;;5012886;28;20195;-82
2022/08/19 11:09:05;;;;;;;5.22;4.82;;;;;;;;;;5040002;28;20256;-81
2022/08/19 11:11:40;;;;;;;5.60;5.10;;;;;;;;;;5038857;28;20221;-82
2022/08/19 11:14:09;;;;;;;5.03;4.63;;;;;;;;;;5044711;28;20256;-80
2022/08/19 11:16:37;;;;;;;6.32;5.53;;;;;;;;;;5031513;28;20202;-80
2022/08/19 11:19:05;;;;;;;8.55;5.20;;;;;;;;;;5029018;28;20218;-81
2022/08/19 11:21:34;;;;;;;5.38;4.88;;;;;;;;;;5051452;28;20229;-84
2022/08/19 11:24:03;;;;;;;4.97;4.57;;;;;;;;;;5043309;28;20214;-80
2022/08/19 11:26:31;;;;;;;6.07;5.45;;;;;;;;;;5031938;28;20223;-82
2022/08/19 11:28:59;;;;;;;5.72;5.18;;;;;;;;;;5031506;28;20207;-86
2022/08/19 11:31:30;;;;;;;5.45;5.03;;;;;;;;;;5031449;28;20209;-85
2022/08/19 11:33:59;;;;;;;5.95;5.55;;;;;;;;;;5041688;28;20208;-87
2022/08/19 11:36:27;;;;;;;5.57;5.10;;;;;;;;;;5032472;28;20580;-87
2022/08/19 11:38:55;;;;;;;5.88;5.13;;;;;;;;;;5031111;28;20203;-88
2022/08/19 11:41:24;;;;;;;6.35;5.75;;;;;;;;;;5029876;28;20219;-84
2022/08/19 11:43:52;;;;;;;5.28;4.75;;;;;;;;;;5037641;28;20667;-83
2022/08/19 11:46:19;;;;;;;5.70;5.20;;;;;;;;;;5029403;28;20199;-84
2022/08/19 11:48:48;;;;;;;5.75;5.25;;;;;;;;;;5032482;28;20209;-85
2022/08/19 11:51:18;;;;;;;5.72;5.15;;;;;;;;;;5030423;28;20285;-85
2022/08/19 11:53:45;;;;;;;5.43;4.82;;;;;;;;;;5029856;28;20206;-90
2022/08/19 11:56:13;;;;;;;5.50;5.00;;;;;;;;;;5032889;28;20297;-87
2022/08/19 11:58:41;;;;;;;5.65;5.20;;;;;;;;;;5034946;28;20203;-86
2022/08/19 12:04:31;;;;;;;5.65;5.00;;;;;;;;;;5036008;28;20177;-84
2022/08/19 12:06:58;;;;;;;5.10;4.72;;;;;;;;;;5035406;28;20198;-82
2022/08/19 12:09:25;;;;;;;5.25;4.75;;;;;;;;;;5035117;28;20612;-85
2022/08/19 12:15:14;;;;;;;6.53;4.63;;;;;;;;;;5036008;28;20668;-86
2022/08/19 12:17:41;;;;;;;5.85;5.28;;;;;;;;;;5050201;28;20203;-85
2022/08/19 12:20:13;;;;;;;5.32;4.93;;;;;;;;;;5033952;28;20283;-85
2022/08/19 12:23:37;;;;;;;5.90;5.40;;;;;;;;;;5032815;28;20685;-83
2022/08/19 12:26:04;;;;;;;7.07;4.95;;;;;;;;;;5031242;28;20235;-85
2022/08/19 12:28:32;;;;;;;6.55;4.50;;;;;;;;;;5048500;28;20213;-85
2022/08/19 12:34:20;;;;;;;5.97;5.25;;;;;;;;;;5034159;28;20202;-87
2022/08/19 12:36:50;;;;;;;5.78;5.20;;;;;;;;;;5035036;28;20281;-86
2022/08/19 12:39:17;;;;;;;6.90;4.93;;;;;;;;;;5016563;28;20205;-87
2022/08/19 12:41:44;;;;;;;5.57;5.13;;;;;;;;;;5049237;28;20633;-82
2022/08/19 12:44:12;;;;;;;5.30;4.90;;;;;;;;;;5035322;28;20346;-85
2022/08/19 12:46:39;;;;;;;5.00;4.60;;;;;;;;;;5050503;28;20206;-87
2022/08/19 12:49:11;;;;;;;5.65;5.25;;;;;;;;;;5033858;28;20210;-90
2022/08/19 12:51:39;;;;;;;4.95;4.50;;;;;;;;;;5035298;28;20275;-89
2022/08/19 12:54:08;;;;;;;5.10;4.63;;;;;;;;;;5033468;28;20282;-83
2022/08/19 12:56:35;;;;;;;5.28;4.57;;;;;;;;;;5018524;28;20195;-83
2022/08/19 12:59:02;;;;;;;5.03;4.63;;;;;;;;;;5034027;28;20210;-81
2022/08/19 13:01:32;;;;;;;6.75;4.85;;;;;;;;;;5034068;28;20251;-83
2022/08/19 13:04:00;;;;;;;5.22;4.78;;;;;;;;;;5033141;28;20264;-79
2022/08/19 13:06:27;;;;;;;5.75;5.25;;;;;;;;;;5032100;28;20679;-85
2022/08/19 13:08:56;;;;;;;5.22;4.78;;;;;;;;;;5033708;28;20221;-81
2022/08/19 13:11:25;;;;;;;4.90;4.60;;;;;;;;;;5033856;28;20300;-84
2022/08/19 13:13:54;;;;;;;5.38;4.80;;;;;;;;;;5033288;28;20599;-80
2022/08/19 13:19:43;;;;;;;5.38;5.03;;;;;;;;;;5014779;28;20163;-81
2022/08/19 13:22:11;;;;;;;5.30;4.80;;;;;;;;;;5018603;28;20214;-82
2022/08/19 13:24:38;;;;;;;4.90;4.38;;;;;;;;;;5034170;28;20673;-82
2022/08/19 13:33:13;;;;;;;4.72;4.32;;;;;;;;;;5034382;28;20201;-81
2022/08/19 13:35:43;;;;;;;4.60;4.30;;;;;;;;;;5032745;28;20253;-82
2022/08/19 13:38:10;;;;;;;4.80;4.40;;;;;;;;;;5032393;28;20230;-79
2022/08/19 13:40:38;;;;;;;6.90;5.40;;;;;;;;;;5032999;28;20214;-83
2022/08/19 13:43:09;;;;;;;5.47;5.00;;;;;;;;;;5031108;28;20222;-81
2022/08/19 13:45:37;;;;;;;9.68;8.70;;;;;;;;;;5044291;28;20221;-82
2022/08/19 13:48:08;;;;;;;5.32;4.82;;;;;;;;;;5034464;28;20268;-83
2022/08/19 13:50:43;;;;;;;4.82;4.30;;;;;;;;;;5034542;28;20190;-85
2022/08/19 13:53:11;;;;;;;5.05;4.65;;;;;;;;;;5044393;28;20265;-83
2022/08/19 13:55:38;;;;;;;5.45;5.00;;;;;;;;;;5031643;28;20194;-84
2022/08/19 13:58:05;;;;;;;5.75;5.25;;;;;;;;;;5048633;28;20199;-80
2022/08/19 14:00:34;;;;;;;4.68;4.22;;;;;;;;;;5033941;28;20206;-79
2022/08/19 14:06:25;;;;;;;6.68;4.60;;;;;;;;;;5033687;28;20242;-81
2022/08/19 14:08:52;;;;;;;5.47;4.97;;;;;;;;;;5032326;28;20210;-80
2022/08/19 14:11:19;;;;;;;5.13;4.72;;;;;;;;;;5033858;28;20222;-90
2022/08/19 14:13:46;;;;;;;4.90;4.50;;;;;;;;;;5033560;28;20573;-84
2022/08/19 14:16:14;;;;;;;6.18;4.70;;;;;;;;;;5033125;28;20206;-83
2022/08/19 14:18:45;;;;;;;5.13;4.63;;;;;;;;;;5034842;28;20198;-83
2022/08/19 14:21:23;;;;;;;5.20;4.80;;;;;;;;;;5034211;28;20203;-83
2022/08/19 14:23:51;;;;;;;4.90;4.50;;;;;;;;;;5032067;28;20260;-82
2022/08/19 14:26:20;;;;;;;5.32;4.10;;;;;;;;;;5032042;28;20221;-80
2022/08/19 14:28:47;;;;;;;5.10;4.63;;;;;;;;;;5032929;28;20213;-84
2022/08/19 14:31:18;;;;;;;9.05;5.00;;;;;;;;;;5033322;28;20264;-80
2022/08/19 14:33:46;;;;;;;4.70;4.32;;;;;;;;;;5032004;28;20199;-81
2022/08/19 14:36:13;;;;;;;5.85;5.22;;;;;;;;;;5048747;28;20195;-89
2022/08/19 14:38:42;;;;;;;5.57;5.18;;;;;;;;;;5032537;28;20201;-80
2022/08/19 14:41:16;;;;;;;5.25;4.85;;;;;;;;;;5032260;28;20203;-81
2022/08/19 14:43:46;;;;;;;5.30;4.90;;;;;;;;;;5031367;28;20226;-80
2022/08/19 14:46:13;;;;;;;7.25;4.97;;;;;;;;;;5031745;28;20199;-80
2022/08/19 14:48:40;;;;;;;4.97;4.57;;;;;;;;;;5032292;28;20245;-81
2022/08/19 14:51:07;;;;;;;6.10;5.22;;;;;;;;;;5013919;28;20206;-81
2022/08/19 14:53:34;;;;;;;5.82;5.38;;;;;;;;;;5047672;28;20191;-81
2022/08/19 14:56:03;;;;;;;5.03;4.63;;;;;;;;;;5031549;28;20221;-82
2022/08/19 14:58:31;;;;;;;5.93;5.38;;;;;;;;;;5031481;28;20221;-82
2022/08/19 15:00:59;;;;;;;5.15;4.75;;;;;;;;;;5042905;28;20201;-81
2022/08/19 15:03:27;;;;;;;5.15;4.30;;;;;;;;;;5032725;28;20253;-83
2022/08/19 15:05:56;;;;;;;5.13;4.03;;;;;;;;;;5031692;28;20206;-86
2022/08/19 15:08:24;;;;;;;5.97;4.03;;;;;;;;;;5031327;28;21699;-84
2022/08/19 15:10:52;;;;;;;4.60;3.72;;;;;;;;;;5031495;28;20236;-86
2022/08/19 15:13:19;;;;;;;4.30;4.00;;;;;;;;;;5036233;28;20209;-84
2022/08/19 15:15:48;;;;;;;4.50;4.18;;;;;;;;;;5040642;28;20206;-79
2022/08/19 15:18:16;;;;;;;5.03;4.63;;;;;;;;;;5031886;28;20545;-92
2022/08/19 15:20:44;;;;;;;4.65;4.20;;;;;;;;;;5030935;28;20202;-86
2022/08/19 15:23:11;;;;;;;4.80;4.40;;;;;;;;;;5046895;28;20317;-86
2022/08/19 15:25:38;;;;;;;4.28;3.97;;;;;;;;;;5031743;28;20647;-86
2022/08/19 15:28:06;;;;;;;5.20;4.80;;;;;;;;;;5029164;28;20645;-86
2022/08/19 15:30:35;;;;;;;5.47;4.72;;;;;;;;;;5011741;28;20249;-87
2022/08/19 15:33:03;;;;;;;5.05;4.65;;;;;;;;;;5034411;28;20205;-85
2022/08/19 15:35:31;;;;;;;5.22;4.90;;;;;;;;;;5049724;28;20202;-87
2022/08/19 15:37:58;;;;;;;4.50;4.10;;;;;;;;;;5050561;28;20584;-87
2022/08/19 15:40:26;;;;;;;4.07;3.78;;;;;;;;;;5040620;28;20202;-87
2022/08/19 15:42:54;;;;;;;6.72;4.43;;;;;;;;;;5030631;28;20214;-87
2022/08/19 15:45:22;;;;;;;5.38;4.75;;;;;;;;;;5030816;28;20209;-86
2022/08/19 15:47:49;;;;;;;4.95;4.40;;;;;;;;;;5030859;28;20195;-86
2022/08/19 15:50:20;;;;;;;5.03;4.53;;;;;;;;;;5030833;28;20579;-86
2022/08/19 15:52:49;;;;;;;4.85;4.35;;;;;;;;;;5029012;28;20283;-86
2022/08/19 15:55:16;;;;;;;4.10;3.72;;;;;;;;;;5028576;28;20329;-86
2022/08/19 16:08:40;;;;;;;5.35;4.70;;;;;;;;;;5019674;28;20692;-85
2022/08/19 16:11:07;;;;;;;4.88;4.47;;;;;;;;;;5028065;28;20202;-87
2022/08/19 16:13:36;;;;;;;4.10;3.80;;;;;;;;;;5028398;28;20199;-86
2022/08/19 16:16:03;;;;;;;4.60;4.30;;;;;;;;;;5028597;28;20222;-86
2022/08/19 16:18:30;;;;;;;4.78;4.22;;;;;;;;;;5028368;28;20203;-86
2022/08/19 16:20:58;;;;;;;4.65;4.25;;;;;;;;;;5028198;28;20210;-86
2022/08/19 16:23:26;;;;;;;5.65;5.03;;;;;;;;;;5012537;28;20733;-86
2022/08/19 16:25:52;;;;;;;7.80;5.28;;;;;;;;;;5028218;28;20222;-86